Time;durP1;ratioP1;P1;durP2;ratioP2;P2;SDS_P1;SDS_P2;PMS_P1;PMS_P2;Temp;Humidity;BMP_temperature;BMP_pressure;BME280_temperature;BME280_humidity;BME280_pressure;Samples;Min_cycle;Max_cycle;Signal;HPM_P1;HPM_P2
2021/05/30 00:01:09;;;;;;;58.78;24.83;;;;;;;10.78;100.00;102112.66;5018925;28;20095;-57
2021/05/30 00:03:40;;;;;;;49.28;24.95;;;;;;;10.85;100.00;102111.97;5022468;28;20133;-56
2021/05/30 00:06:07;;;;;;;48.88;24.15;;;;;;;10.73;100.00;102104.16;5010370;28;20096;-57
2021/05/30 00:08:35;;;;;;;47.65;24.98;;;;;;;10.80;100.00;102108.00;5017262;28;20069;-56
2021/05/30 00:11:04;;;;;;;57.25;26.70;;;;;;;10.80;100.00;102095.50;5020263;28;20038;-56
2021/05/30 00:13:31;;;;;;;50.70;24.65;;;;;;;10.77;100.00;102102.94;5014106;28;20438;-57
2021/05/30 00:15:59;;;;;;;50.63;23.98;;;;;;;10.62;100.00;102097.94;5023020;28;20049;-57
2021/05/30 00:18:26;;;;;;;57.03;26.52;;;;;;;10.65;100.00;102097.66;5020753;28;20041;-57
2021/05/30 00:20:53;;;;;;;49.28;24.90;;;;;;;10.67;100.00;102098.41;5021079;28;20045;-57
2021/05/30 00:23:22;;;;;;;52.60;25.70;;;;;;;10.65;100.00;102107.53;5017020;28;20034;-57
2021/05/30 00:25:50;;;;;;;53.75;26.77;;;;;;;10.73;100.00;102110.38;5015343;28;20041;-57
2021/05/30 00:28:17;;;;;;;52.05;25.58;;;;;;;10.55;100.00;102106.63;5019585;28;20092;-57
2021/05/30 00:30:44;;;;;;;49.40;24.10;;;;;;;10.48;100.00;102104.47;5016139;28;20038;-57
2021/05/30 00:33:14;;;;;;;57.63;27.23;;;;;;;10.40;100.00;102109.59;5014138;28;20485;-57
2021/05/30 00:35:42;;;;;;;51.78;25.92;;;;;;;10.27;100.00;102107.09;5018404;28;20053;-57
2021/05/30 00:38:09;;;;;;;64.32;28.38;;;;;;;10.33;100.00;102109.25;5017700;28;20045;-57
2021/05/30 00:40:36;;;;;;;59.67;28.35;;;;;;;10.20;100.00;102103.25;5018786;28;20037;-56
2021/05/30 00:43:05;;;;;;;64.50;28.27;;;;;;;10.10;100.00;102103.19;5017056;28;20041;-57
2021/05/30 00:45:32;;;;;;;63.67;29.00;;;;;;;10.11;100.00;102104.03;5019581;28;20053;-57
2021/05/30 00:48:00;;;;;;;65.10;29.73;;;;;;;10.12;100.00;102100.38;5017389;28;20045;-57
2021/05/30 00:50:27;;;;;;;75.30;30.92;;;;;;;10.08;100.00;102093.59;5018308;28;20285;-57
2021/05/30 00:52:55;;;;;;;64.32;29.02;;;;;;;10.10;100.00;102089.00;5020684;28;20080;-57
2021/05/30 00:55:24;;;;;;;72.72;32.40;;;;;;;10.28;100.00;102089.28;5018340;28;20442;-58
2021/05/30 00:57:52;;;;;;;75.28;33.22;;;;;;;10.26;100.00;102092.06;5021427;28;20034;-57
2021/05/30 01:00:21;;;;;;;65.53;31.52;;;;;;;10.28;100.00;102095.44;5016918;28;20046;-57
2021/05/30 01:02:48;;;;;;;57.03;28.67;;;;;;;10.27;100.00;102088.41;5013458;28;20087;-57
2021/05/30 01:05:16;;;;;;;65.50;28.25;;;;;;;10.33;100.00;102093.25;5017885;28;20405;-57
2021/05/30 01:07:46;;;;;;;56.58;27.02;;;;;;;10.47;100.00;102092.06;5018949;28;20115;-57
2021/05/30 01:10:28;;;;;;;54.65;25.73;;;;;;;10.42;100.00;102096.13;5019620;28;20392;-56
2021/05/30 01:12:56;;;;;;;64.70;29.85;;;;;;;10.31;100.00;102091.69;5014987;28;20081;-57
2021/05/30 01:15:25;;;;;;;59.13;27.50;;;;;;;10.25;100.00;102101.06;5015856;28;20259;-57
2021/05/30 01:17:54;;;;;;;59.67;27.48;;;;;;;10.21;100.00;102093.44;5018873;28;20045;-57
2021/05/30 01:20:22;;;;;;;58.08;28.02;;;;;;;10.27;100.00;102099.09;5017243;28;20426;-56
2021/05/30 01:22:50;;;;;;;53.08;26.73;;;;;;;10.34;100.00;102094.94;5012878;28;20034;-57
2021/05/30 01:25:20;;;;;;;56.17;27.17;;;;;;;10.40;100.00;102098.91;5018209;28;20099;-57
2021/05/30 01:27:48;;;;;;;59.65;26.77;;;;;;;10.37;100.00;102095.69;5018942;28;20461;-57
2021/05/30 01:30:16;;;;;;;52.65;26.35;;;;;;;10.32;100.00;102099.56;5018115;28;20097;-57
2021/05/30 01:32:44;;;;;;;61.67;27.55;;;;;;;10.23;100.00;102100.31;5016977;28;20038;-57
2021/05/30 01:35:12;;;;;;;56.85;25.23;;;;;;;10.28;100.00;102099.94;5013257;28;20103;-58
2021/05/30 01:37:40;;;;;;;58.80;26.38;;;;;;;10.30;100.00;102090.81;5017042;28;20046;-57
2021/05/30 01:40:09;;;;;;;60.95;26.23;;;;;;;10.11;100.00;102098.69;5018062;28;20048;-58
2021/05/30 01:42:38;;;;;;;58.00;28.05;;;;;;;9.99;100.00;102095.22;5016834;28;20381;-57
2021/05/30 01:45:06;;;;;;;60.95;26.80;;;;;;;10.09;100.00;102092.63;5009820;28;20441;-57
2021/05/30 01:47:37;;;;;;;68.00;29.08;;;;;;;10.09;100.00;102090.81;5020868;28;20037;-57
2021/05/30 01:50:07;;;;;;;62.03;26.92;;;;;;;10.19;100.00;102095.38;5022082;28;20045;-57
2021/05/30 01:52:34;;;;;;;67.40;28.10;;;;;;;10.08;100.00;102093.59;5016110;28;20048;-57
2021/05/30 01:55:02;;;;;;;76.43;31.58;;;;;;;10.03;100.00;102098.50;5017369;28;20222;-57
2021/05/30 01:57:30;;;;;;;77.72;33.63;;;;;;;10.03;100.00;102101.16;5022184;28;20050;-58
2021/05/30 01:59:58;;;;;;;84.93;34.35;;;;;;;10.04;100.00;102092.19;5018275;28;20099;-57
2021/05/30 02:02:25;;;;;;;63.92;30.70;;;;;;;9.86;100.00;102091.88;5019978;28;20049;-57
2021/05/30 02:04:54;;;;;;;69.47;30.75;;;;;;;9.76;100.00;102089.13;5022151;28;20108;-57
2021/05/30 02:07:21;;;;;;;74.55;30.85;;;;;;;9.60;100.00;102089.56;5017689;28;20385;-57
2021/05/30 02:09:49;;;;;;;66.47;28.58;;;;;;;9.56;100.00;102086.28;5018662;28;20231;-57
2021/05/30 02:12:17;;;;;;;74.53;32.90;;;;;;;9.48;100.00;102100.25;5018857;28;20042;-57
2021/05/30 02:14:45;;;;;;;72.22;32.88;;;;;;;9.57;100.00;102087.97;5020472;28;20049;-57
2021/05/30 02:17:13;;;;;;;81.88;33.85;;;;;;;9.46;100.00;102094.19;5021651;28;20104;-57
2021/05/30 02:19:41;;;;;;;90.72;37.60;;;;;;;9.53;100.00;102083.03;5019402;28;20033;-57
2021/05/30 02:22:08;;;;;;;92.63;37.28;;;;;;;9.52;100.00;102087.50;5019089;28;20056;-57
2021/05/30 02:24:36;;;;;;;88.93;35.60;;;;;;;9.61;100.00;102088.56;5020206;28;20330;-57
2021/05/30 02:27:04;;;;;;;100.43;40.80;;;;;;;9.75;100.00;102087.44;5013444;28;20433;-57
2021/05/30 02:29:35;;;;;;;81.35;35.40;;;;;;;9.76;100.00;102084.63;5020024;28;20048;-57
2021/05/30 02:32:03;;;;;;;81.38;34.08;;;;;;;9.76;100.00;102078.47;5019233;28;20384;-57
2021/05/30 02:34:32;;;;;;;82.07;34.88;;;;;;;9.68;100.00;102076.41;5017616;28;20318;-57
2021/05/30 02:36:59;;;;;;;71.80;32.60;;;;;;;9.68;100.00;102080.91;5022835;28;20442;-57
2021/05/30 02:39:27;;;;;;;84.03;34.17;;;;;;;9.85;100.00;102076.84;5018524;28;20049;-57
2021/05/30 02:41:54;;;;;;;92.40;36.40;;;;;;;9.76;100.00;102079.31;5021553;28;20050;-57
2021/05/30 02:44:22;;;;;;;87.68;36.28;;;;;;;9.67;100.00;102077.41;5017381;28;20046;-58
2021/05/30 02:46:50;;;;;;;88.80;36.88;;;;;;;9.64;100.00;102083.00;5022905;28;20496;-57
2021/05/30 02:49:18;;;;;;;109.55;40.75;;;;;;;9.73;100.00;102078.72;5019107;28;20044;-57
2021/05/30 02:51:47;;;;;;;100.75;39.45;;;;;;;9.72;100.00;102077.03;5017437;28;20042;-57
2021/05/30 02:54:14;;;;;;;116.13;41.97;;;;;;;9.67;100.00;102073.88;5022190;28;20096;-57
2021/05/30 02:56:41;;;;;;;97.97;38.55;;;;;;;9.61;100.00;102085.91;5019955;28;20041;-58
2021/05/30 02:59:09;;;;;;;80.10;34.47;;;;;;;9.34;100.00;102081.00;5023137;28;20041;-57
2021/05/30 03:01:36;;;;;;;82.50;34.65;;;;;;;9.25;100.00;102075.44;5015700;28;20042;-58
2021/05/30 03:04:04;;;;;;;84.70;35.72;;;;;;;9.41;100.00;102074.19;5020136;28;20312;-57
2021/05/30 03:06:32;;;;;;;79.88;34.20;;;;;;;9.46;100.00;102069.34;5019767;28;20135;-57
2021/05/30 03:09:00;;;;;;;92.25;36.65;;;;;;;9.48;100.00;102070.91;5021372;28;20320;-58
2021/05/30 03:11:28;;;;;;;87.03;35.78;;;;;;;9.64;100.00;102075.00;5020630;28;20091;-57
2021/05/30 03:13:57;;;;;;;94.60;38.05;;;;;;;9.45;100.00;102072.97;5019184;28;20046;-57
2021/05/30 03:16:24;;;;;;;84.07;35.42;;;;;;;9.37;100.00;102078.94;5020099;28;20045;-57
2021/05/30 03:18:52;;;;;;;98.05;36.60;;;;;;;9.32;100.00;102074.97;5020572;28;20433;-57
2021/05/30 03:21:19;;;;;;;87.00;34.63;;;;;;;9.20;100.00;102077.66;5015927;28;20045;-57
2021/05/30 03:23:47;;;;;;;76.00;33.33;;;;;;;9.16;100.00;102070.84;5019583;28;20042;-58
2021/05/30 03:26:15;;;;;;;90.90;34.13;;;;;;;9.35;100.00;102074.69;5020809;28;20057;-58
2021/05/30 03:28:42;;;;;;;93.63;36.40;;;;;;;9.38;100.00;102063.78;5018823;28;20061;-57
2021/05/30 03:31:10;;;;;;;100.88;37.10;;;;;;;9.57;100.00;102073.78;5019647;28;20053;-58
2021/05/30 03:33:37;;;;;;;91.93;35.88;;;;;;;9.31;100.00;102074.09;5016465;28;23557;-57
2021/05/30 03:36:09;;;;;;;96.20;37.60;;;;;;;9.27;100.00;102077.97;5018119;28;20076;-58
2021/05/30 03:38:36;;;;;;;93.78;38.63;;;;;;;9.20;100.00;102069.66;5018922;28;20121;-58
2021/05/30 03:41:05;;;;;;;95.13;38.38;;;;;;;9.15;100.00;102071.81;5017485;28;20203;-57
2021/05/30 03:43:34;;;;;;;92.25;36.30;;;;;;;9.06;100.00;102069.91;5019573;28;20046;-58
2021/05/30 03:46:02;;;;;;;95.53;36.95;;;;;;;9.27;100.00;102078.84;5022247;28;20046;-58
2021/05/30 03:48:30;;;;;;;97.35;36.65;;;;;;;9.23;100.00;102077.38;5021369;28;20275;-58
2021/05/30 03:50:58;;;;;;;97.30;36.85;;;;;;;9.35;100.00;102080.03;5018405;28;20049;-58
2021/05/30 03:53:25;;;;;;;105.80;38.15;;;;;;;9.21;100.00;102079.31;5012809;28;20111;-57
2021/05/30 03:55:52;;;;;;;95.28;37.35;;;;;;;9.30;100.00;102080.41;5019149;28;20077;-58
2021/05/30 03:58:21;;;;;;;93.75;36.30;;;;;;;9.35;100.00;102075.53;5018611;28;20042;-58
2021/05/30 04:00:49;;;;;;;91.20;36.10;;;;;;;9.45;100.00;102078.31;5018327;28;20099;-58
2021/05/30 04:03:16;;;;;;;100.80;37.05;;;;;;;9.44;100.00;102079.28;5016407;28;20049;-57
2021/05/30 04:05:44;;;;;;;98.53;36.28;;;;;;;9.31;100.00;102076.75;5017238;28;20384;-58
2021/05/30 04:08:11;;;;;;;92.18;36.55;;;;;;;9.40;100.00;102075.16;5021829;28;20045;-58
2021/05/30 04:10:42;;;;;;;93.32;35.60;;;;;;;9.45;100.00;102080.97;5020746;28;20045;-58
2021/05/30 04:13:09;;;;;;;83.88;34.17;;;;;;;9.39;100.00;102084.16;5018289;28;20056;-58
2021/05/30 04:15:37;;;;;;;85.68;33.53;;;;;;;9.47;100.00;102084.38;5017147;28;20421;-58
2021/05/30 04:18:05;;;;;;;86.55;33.22;;;;;;;9.51;100.00;102088.47;5017373;28;20315;-58
2021/05/30 04:20:33;;;;;;;102.18;36.78;;;;;;;9.48;100.00;102089.59;5019063;28;20412;-58
2021/05/30 04:23:01;;;;;;;104.78;37.45;;;;;;;9.54;100.00;102087.38;5014430;28;20392;-58
2021/05/30 04:25:28;;;;;;;87.28;34.42;;;;;;;9.56;100.00;102091.63;5019717;28;20103;-58
2021/05/30 04:27:55;;;;;;;81.63;33.95;;;;;;;9.70;100.00;102092.31;5019785;28;20400;-58
2021/05/30 04:30:23;;;;;;;93.07;34.65;;;;;;;9.90;100.00;102098.66;5018046;28;20455;-58
2021/05/30 04:32:50;;;;;;;83.63;34.35;;;;;;;9.83;100.00;102095.66;5017104;28;20096;-57
2021/05/30 04:35:19;;;;;;;66.35;28.88;;;;;;;9.98;100.00;102094.38;5016624;28;20045;-57
2021/05/30 04:37:46;;;;;;;83.93;32.13;;;;;;;10.02;100.00;102099.47;5016783;28;20057;-58
2021/05/30 04:40:14;;;;;;;78.00;30.50;;;;;;;10.26;100.00;102100.09;5017718;28;20041;-58
2021/05/30 04:42:42;;;;;;;69.53;29.98;;;;;;;10.42;100.00;102093.44;5017416;28;20050;-57
2021/05/30 04:45:10;;;;;;;57.30;25.55;;;;;;;10.50;100.00;102093.63;5016782;28;20108;-58
2021/05/30 04:47:38;;;;;;;61.70;27.20;;;;;;;10.55;100.00;102098.59;5020471;28;20068;-57
2021/05/30 04:50:07;;;;;;;50.25;24.25;;;;;;;10.58;100.00;102096.50;5018256;28;20048;-57
2021/05/30 04:52:39;;;;;;;55.45;24.75;;;;;;;10.64;100.00;102095.97;5016781;28;20366;-57
2021/05/30 04:55:09;;;;;;;56.97;26.13;;;;;;;10.45;100.00;102106.56;5012677;28;20053;-57
2021/05/30 04:57:37;;;;;;;51.95;24.40;;;;;;;10.64;100.00;102100.47;5015213;28;20374;-58
2021/05/30 05:00:06;;;;;;;53.47;24.63;;;;;;;10.67;100.00;102100.19;5018049;28;20642;-58
2021/05/30 05:02:33;;;;;;;46.20;22.67;;;;;;;10.77;100.00;102094.91;5017410;28;20045;-58
2021/05/30 05:05:01;;;;;;;45.65;22.60;;;;;;;10.85;100.00;102111.97;5016872;28;20105;-57
2021/05/30 05:07:28;;;;;;;48.13;22.88;;;;;;;10.79;100.00;102098.31;5018294;28;20053;-57
2021/05/30 05:09:56;;;;;;;46.28;22.35;;;;;;;10.95;100.00;102106.66;5017656;28;20488;-57
2021/05/30 05:12:24;;;;;;;46.28;22.75;;;;;;;10.86;100.00;102104.81;5015328;28;20045;-57
2021/05/30 05:14:51;;;;;;;44.60;22.90;;;;;;;10.94;100.00;102106.81;5013848;28;20050;-57
2021/05/30 05:17:18;;;;;;;46.47;22.27;;;;;;;10.98;100.00;102109.06;5017471;28;20103;-57
2021/05/30 05:19:46;;;;;;;44.60;21.08;;;;;;;11.09;100.00;102109.97;5015379;28;20038;-57
2021/05/30 05:22:14;;;;;;;50.08;23.05;;;;;;;11.25;100.00;102104.94;5017244;28;20152;-57
2021/05/30 05:24:59;;;;;;;41.85;21.42;;;;;;;11.46;100.00;102106.72;5016858;28;20482;-57
2021/05/30 05:27:27;;;;;;;36.28;19.90;;;;;;;11.59;100.00;102107.28;5019924;28;20041;-57
2021/05/30 05:29:54;;;;;;;42.70;20.10;;;;;;;11.80;100.00;102103.66;5022114;28;20068;-57
2021/05/30 05:32:22;;;;;;;41.78;21.77;;;;;;;11.68;100.00;102109.13;5018461;28;20041;-57
2021/05/30 05:34:50;;;;;;;38.47;20.73;;;;;;;11.75;100.00;102112.13;5019620;28;20046;-57
2021/05/30 05:37:17;;;;;;;38.30;20.50;;;;;;;12.36;100.00;102104.78;5020134;28;20048;-57
2021/05/30 05:39:44;;;;;;;36.58;19.25;;;;;;;12.69;100.00;102108.78;5020011;28;20045;-57
2021/05/30 05:42:13;;;;;;;35.17;19.55;;;;;;;13.32;100.00;102104.56;5023373;28;20048;-57
2021/05/30 05:44:40;;;;;;;33.20;17.98;;;;;;;13.30;100.00;102108.38;5019968;28;20380;-59
2021/05/30 05:47:08;;;;;;;32.42;18.65;;;;;;;13.31;100.00;102096.69;5018639;28;20491;-60
2021/05/30 05:49:35;;;;;;;32.00;16.50;;;;;;;13.17;100.00;102109.59;5023499;28;20053;-59
2021/05/30 05:52:03;;;;;;;27.38;16.23;;;;;;;13.25;100.00;102109.72;5017640;28;20050;-60
2021/05/30 05:54:44;;;;;;;29.95;18.60;;;;;;;13.99;100.00;102108.81;5020941;28;20492;-57
2021/05/30 05:57:13;;;;;;;29.88;16.45;;;;;;;14.63;100.00;102098.75;5019463;28;21169;-57
2021/05/30 05:59:40;;;;;;;32.92;19.45;;;;;;;13.52;100.00;102104.50;5023973;28;20049;-58
2021/05/30 06:02:07;;;;;;;35.30;18.67;;;;;;;12.99;100.00;102106.84;5020581;28;20404;-59
2021/05/30 06:04:35;;;;;;;34.55;18.85;;;;;;;13.19;100.00;102109.47;5019042;28;20100;-59
2021/05/30 06:07:03;;;;;;;32.95;19.17;;;;;;;13.93;100.00;102107.59;5023373;28;20124;-59
2021/05/30 06:09:30;;;;;;;35.45;20.58;;;;;;;14.83;100.00;102101.19;5021214;28;20049;-59
2021/05/30 06:11:57;;;;;;;31.15;18.33;;;;;;;14.69;100.00;102102.66;5016827;28;20112;-59
2021/05/30 06:14:26;;;;;;;32.10;19.90;;;;;;;14.93;100.00;102105.47;5023283;28;20196;-60
2021/05/30 06:16:53;;;;;;;30.63;19.55;;;;;;;14.39;100.00;102102.94;5017361;28;20253;-60
2021/05/30 06:19:20;;;;;;;30.15;19.25;;;;;;;15.46;100.00;102099.94;5015180;28;20049;-59
2021/05/30 06:21:48;;;;;;;32.33;20.08;;;;;;;15.28;100.00;102102.75;5019922;28;20061;-57
2021/05/30 06:24:15;;;;;;;32.33;19.90;;;;;;;15.73;100.00;102098.81;5015579;28;20068;-57
2021/05/30 06:26:43;;;;;;;31.23;19.30;;;;;;;15.80;100.00;102096.34;5016595;28;20408;-59
2021/05/30 06:29:10;;;;;;;28.33;18.17;;;;;;;15.54;100.00;102102.66;5017758;28;20085;-59
2021/05/30 06:31:38;;;;;;;30.30;18.52;;;;;;;16.32;100.00;102105.94;5017039;28;20049;-59
2021/05/30 06:34:08;;;;;;;27.73;18.08;;;;;;;15.22;100.00;102100.72;5021130;28;20042;-59
2021/05/30 06:36:35;;;;;;;31.15;19.73;;;;;;;15.52;100.00;102107.34;5017219;28;20049;-57
2021/05/30 06:39:03;;;;;;;32.75;20.33;;;;;;;14.09;100.00;102109.56;5019227;28;20045;-58
2021/05/30 06:41:30;;;;;;;33.78;21.10;;;;;;;14.75;100.00;102108.22;5017977;28;20046;-57
2021/05/30 06:43:57;;;;;;;31.42;19.00;;;;;;;15.10;100.00;102109.06;5016666;28;20367;-57
2021/05/30 06:46:25;;;;;;;31.52;20.73;;;;;;;15.62;100.00;102109.91;5020632;28;20042;-57
2021/05/30 06:48:53;;;;;;;30.75;20.17;;;;;;;15.45;100.00;102112.56;5020755;28;20104;-57
2021/05/30 06:51:22;;;;;;;32.78;19.25;;;;;;;15.13;100.00;102111.44;5018372;28;20074;-57
2021/05/30 06:53:51;;;;;;;30.00;20.08;;;;;;;16.53;100.00;102111.63;5020997;28;20052;-57
2021/05/30 06:56:18;;;;;;;29.27;18.02;;;;;;;17.67;100.00;102122.19;5017471;28;20041;-57
2021/05/30 06:58:46;;;;;;;29.63;20.33;;;;;;;17.03;100.00;102114.25;5018698;28;20049;-57
2021/05/30 07:01:14;;;;;;;28.65;19.92;;;;;;;16.26;100.00;102120.94;5017136;28;20091;-57
2021/05/30 07:03:42;;;;;;;31.02;20.13;;;;;;;15.82;100.00;102116.72;5017844;28;20061;-57
2021/05/30 07:06:10;;;;;;;32.88;20.58;;;;;;;15.04;100.00;102116.94;5020452;28;20107;-57
2021/05/30 07:08:37;;;;;;;31.25;20.25;;;;;;;16.65;100.00;102114.81;5019468;28;20041;-57
2021/05/30 07:11:05;;;;;;;32.13;22.20;;;;;;;15.03;100.00;102113.41;5013828;28;20275;-57
2021/05/30 07:13:35;;;;;;;34.03;20.77;;;;;;;16.74;100.00;102107.56;5018755;28;20313;-57
2021/05/30 07:16:03;;;;;;;34.78;21.67;;;;;;;15.87;100.00;102116.19;5018642;28;20069;-57
2021/05/30 07:18:31;;;;;;;28.50;19.25;;;;;;;15.87;100.00;102112.69;5016586;28;20503;-57
2021/05/30 07:20:59;;;;;;;33.03;20.67;;;;;;;15.49;100.00;102102.31;5016862;28;20042;-57
2021/05/30 07:23:28;;;;;;;34.08;21.48;;;;;;;15.67;100.00;102108.41;5018568;28;20045;-57
2021/05/30 07:25:55;;;;;;;28.70;18.88;;;;;;;16.23;100.00;102110.50;5018913;28;20037;-57
2021/05/30 07:28:23;;;;;;;30.88;19.70;;;;;;;15.58;100.00;102108.53;5021425;28;20445;-57
2021/05/30 07:30:51;;;;;;;36.58;21.55;;;;;;;15.40;100.00;102109.50;5021480;28;20260;-57
2021/05/30 07:33:21;;;;;;;35.63;22.00;;;;;;;14.94;100.00;102109.84;5015230;28;20042;-57
2021/05/30 07:35:49;;;;;;;37.08;22.20;;;;;;;15.86;100.00;102114.50;5018406;28;20532;-57
2021/05/30 07:38:16;;;;;;;32.58;21.45;;;;;;;16.66;100.00;102104.88;5018222;28;20049;-57
2021/05/30 07:40:44;;;;;;;29.35;19.50;;;;;;;17.03;100.00;102103.44;5019639;28;20053;-57
2021/05/30 07:43:12;;;;;;;29.23;19.40;;;;;;;18.24;100.00;102106.56;5018621;28;20041;-58
2021/05/30 07:45:40;;;;;;;33.30;19.20;;;;;;;18.87;100.00;102111.72;5017554;28;20045;-58
2021/05/30 07:48:08;;;;;;;30.65;18.75;;;;;;;18.95;100.00;102106.19;5021524;28;20456;-56
2021/05/30 07:50:35;;;;;;;26.30;18.73;;;;;;;18.04;100.00;102107.06;5020624;28;20096;-56
2021/05/30 07:53:03;;;;;;;34.30;22.02;;;;;;;18.73;100.00;102116.91;5013640;28;20099;-56
2021/05/30 07:55:31;;;;;;;32.58;19.95;;;;;;;18.42;100.00;102106.25;5015562;28;20061;-55
2021/05/30 07:58:00;;;;;;;31.23;20.52;;;;;;;17.79;100.00;102100.16;5021346;28;20050;-58
2021/05/30 08:00:27;;;;;;;31.42;20.48;;;;;;;18.15;100.00;102107.69;5018422;28;20055;-57
2021/05/30 08:02:55;;;;;;;27.02;18.98;;;;;;;17.29;100.00;102105.84;5016458;28;20465;-58
2021/05/30 08:05:22;;;;;;;27.60;18.13;;;;;;;19.17;100.00;102109.00;5017178;28;20030;-58
2021/05/30 08:07:51;;;;;;;31.70;20.20;;;;;;;17.24;100.00;102107.38;5021121;28;20058;-58
2021/05/30 08:10:20;;;;;;;28.48;19.23;;;;;;;17.92;100.00;102104.97;5016673;28;20041;-58
2021/05/30 08:12:48;;;;;;;33.17;21.15;;;;;;;17.35;100.00;102107.00;5018178;28;20095;-57
2021/05/30 08:15:22;;;;;;;27.02;18.65;;;;;;;19.37;100.00;102103.81;5015572;28;20038;-57
2021/05/30 08:17:51;;;;;;;31.20;19.10;;;;;;;17.82;100.00;102094.38;5020025;28;20049;-59
2021/05/30 08:20:21;;;;;;;29.95;18.10;;;;;;;18.89;100.00;102096.97;5013920;28;20068;-58
2021/05/30 08:22:49;;;;;;;29.80;19.42;;;;;;;17.00;100.00;102096.53;5017062;28;20050;-57
2021/05/30 08:25:17;;;;;;;28.63;17.75;;;;;;;18.90;100.00;102093.25;5019037;28;20100;-57
2021/05/30 08:27:45;;;;;;;23.48;16.35;;;;;;;19.67;100.00;102095.59;5016026;28;20408;-57
2021/05/30 08:30:13;;;;;;;24.58;16.95;;;;;;;20.53;100.00;102092.81;5020158;28;20050;-56
2021/05/30 08:32:42;;;;;;;26.63;17.08;;;;;;;19.38;100.00;102095.50;5014299;28;20095;-56
2021/05/30 08:35:10;;;;;;;23.08;16.50;;;;;;;19.55;100.00;102090.69;5017836;28;20244;-57
2021/05/30 08:37:43;;;;;;;24.83;15.18;;;;;;;20.67;100.00;102093.78;5017789;28;20038;-57
2021/05/30 08:40:12;;;;;;;29.63;16.52;;;;;;;20.49;100.00;102083.38;5009608;28;20100;-58
2021/05/30 08:42:39;;;;;;;24.20;16.10;;;;;;;20.64;100.00;102080.56;5017355;28;20048;-57
2021/05/30 08:45:08;;;;;;;21.63;14.88;;;;;;;21.40;100.00;102076.94;5017645;28;20434;-57
2021/05/30 08:47:36;;;;;;;24.77;16.20;;;;;;;20.78;100.00;102073.34;5020954;28;20034;-56
2021/05/30 08:50:05;;;;;;;23.75;16.33;;;;;;;18.87;100.00;102082.78;5007591;28;20042;-57
2021/05/30 08:52:34;;;;;;;23.63;15.98;;;;;;;21.00;100.00;102070.56;5014409;28;20041;-58
2021/05/30 08:55:03;;;;;;;23.48;15.75;;;;;;;21.74;100.00;102067.00;5018257;28;20050;-57
2021/05/30 08:57:31;;;;;;;23.88;16.13;;;;;;;20.79;100.00;102072.31;5016450;28;20049;-57
2021/05/30 08:59:58;;;;;;;22.52;15.82;;;;;;;20.73;100.00;102070.41;5018870;28;20046;-57
2021/05/30 09:02:26;;;;;;;23.38;15.93;;;;;;;20.49;100.00;102067.09;5015208;28;20281;-58
2021/05/30 09:04:55;;;;;;;24.25;16.40;;;;;;;19.98;100.00;102078.22;5015827;28;20054;-58
2021/05/30 09:07:39;;;;;;;25.65;16.13;;;;;;;20.77;100.00;102068.97;5019801;28;20038;-58
2021/05/30 09:10:08;;;;;;;25.27;16.25;;;;;;;21.19;100.00;102074.38;5014847;28;20092;-58
2021/05/30 09:13:03;;;;;;;26.03;16.87;;;;;;;21.35;100.00;102073.16;5013993;28;20092;-58
2021/05/30 09:15:50;;;;;;;20.45;14.88;;;;;;;21.26;100.00;102076.06;5021022;28;20461;-58
2021/05/30 09:18:19;;;;;;;21.13;14.23;;;;;;;21.71;100.00;102074.75;5019807;28;20349;-58
2021/05/30 09:20:57;;;;;;;22.67;15.45;;;;;;;22.26;100.00;102069.94;5018784;28;20142;-59
2021/05/30 09:23:30;;;;;;;22.65;15.52;;;;;;;21.13;100.00;102076.03;5014770;28;20341;-58
2021/05/30 09:26:13;;;;;;;20.67;15.35;;;;;;;20.90;100.00;102066.31;5014402;28;20042;-58
2021/05/30 09:28:41;;;;;;;21.20;14.32;;;;;;;21.15;100.00;102073.94;5013710;28;20100;-57
2021/05/30 09:31:09;;;;;;;21.40;14.95;;;;;;;21.87;100.00;102065.34;5020530;28;20464;-58
2021/05/30 09:33:37;;;;;;;24.40;15.77;;;;;;;21.36;100.00;102074.84;5018472;28;20056;-57
2021/05/30 09:36:05;;;;;;;23.02;15.07;;;;;;;22.42;100.00;102062.41;5018045;28;20071;-58
2021/05/30 09:38:38;;;;;;;20.85;14.07;;;;;;;22.17;100.00;102060.31;5016766;28;20053;-58
2021/05/30 09:41:08;;;;;;;19.38;13.20;;;;;;;22.34;100.00;102049.84;5009653;28;20049;-58
2021/05/30 09:43:36;;;;;;;20.50;13.45;;;;;;;22.10;100.00;102049.44;5015244;28;20056;-57
2021/05/30 09:46:14;;;;;;;18.92;13.57;;;;;;;22.05;100.00;102053.84;5014561;28;20034;-58
2021/05/30 09:48:45;;;;;;;22.20;14.55;;;;;;;21.69;100.00;102047.78;5018682;28;20076;-57
2021/05/30 09:51:33;;;;;;;22.25;15.02;;;;;;;22.62;100.00;102041.41;5015908;28;20092;-58
2021/05/30 09:54:03;;;;;;;21.13;14.13;;;;;;;22.63;100.00;102036.81;5016492;28;20103;-58
2021/05/30 09:56:35;;;;;;;21.85;14.82;;;;;;;21.02;100.00;102035.88;5020401;28;20042;-58
2021/05/30 09:59:04;;;;;;;19.40;13.48;;;;;;;20.94;100.00;102040.44;5019113;28;20047;-59
2021/05/30 10:01:52;;;;;;;18.95;13.05;;;;;;;22.58;100.00;102042.88;5017995;28;20052;-59
2021/05/30 10:04:21;;;;;;;17.80;12.35;;;;;;;21.47;100.00;102041.63;5016411;28;20037;-58
2021/05/30 10:06:49;;;;;;;21.75;13.93;;;;;;;21.78;100.00;102042.97;5014924;28;20042;-58
2021/05/30 10:09:17;;;;;;;19.23;13.45;;;;;;;22.65;100.00;102038.28;5015747;28;20046;-58
2021/05/30 10:11:45;;;;;;;19.10;11.63;;;;;;;23.08;100.00;102036.00;5018502;28;20449;-58
2021/05/30 10:14:12;;;;;;;17.50;11.82;;;;;;;22.83;100.00;102036.75;5024539;28;20502;-58
2021/05/30 10:16:40;;;;;;;16.77;10.85;;;;;;;22.16;100.00;102026.00;5024274;28;20538;-58
2021/05/30 10:19:10;;;;;;;15.93;11.10;;;;;;;21.23;100.00;102029.47;5019287;28;20045;-58
2021/05/30 10:21:45;;;;;;;18.33;11.00;;;;;;;21.29;100.00;102023.19;5019201;28;20046;-58
2021/05/30 10:24:14;;;;;;;18.27;12.30;;;;;;;21.73;100.00;102029.16;5019104;28;20051;-57
2021/05/30 10:26:47;;;;;;;15.07;10.35;;;;;;;22.11;100.00;102023.91;5019803;28;20041;-58
2021/05/30 10:29:16;;;;;;;16.35;11.35;;;;;;;21.21;100.00;102024.25;5018906;28;20103;-58
2021/05/30 10:31:44;;;;;;;16.63;10.95;;;;;;;22.35;100.00;102027.03;5002439;28;20059;-59
2021/05/30 10:34:20;;;;;;;15.88;10.50;;;;;;;21.69;100.00;102011.59;5022327;28;20046;-58
2021/05/30 10:37:23;;;;;;;16.05;9.70;;;;;;;22.01;100.00;102013.47;5018403;28;20097;-57
2021/05/30 10:39:51;;;;;;;13.52;8.65;;;;;;;21.20;100.00;102010.88;5024033;28;20046;-58
2021/05/30 10:42:23;;;;;;;15.63;10.00;;;;;;;22.56;100.00;102004.16;5021970;28;20052;-58
2021/05/30 10:44:56;;;;;;;17.05;10.30;;;;;;;23.11;100.00;102011.06;5019784;28;20534;-58
2021/05/30 10:48:00;;;;;;;15.60;10.50;;;;;;;23.25;100.00;102017.28;5021702;28;20041;-58
2021/05/30 10:50:35;;;;;;;12.88;9.43;;;;;;;23.59;100.00;102012.44;4982704;28;20116;-58
2021/05/30 10:53:03;;;;;;;16.38;10.90;;;;;;;23.21;100.00;102008.72;5016671;28;20380;-58
2021/05/30 10:55:32;;;;;;;17.42;10.40;;;;;;;22.75;100.00;102007.03;5021575;28;20045;-58
2021/05/30 10:58:12;;;;;;;16.13;9.43;;;;;;;24.88;100.00;102003.63;5022601;28;20041;-59
2021/05/30 11:00:39;;;;;;;10.00;7.70;;;;;;;24.01;78.82;101999.94;5019472;28;20422;-58
2021/05/30 11:03:12;;;;;;;10.38;7.90;;;;;;;22.79;100.00;101994.66;5017665;28;20055;-58
2021/05/30 11:05:45;;;;;;;9.48;6.50;;;;;;;23.04;87.54;101994.75;5018822;28;20100;-58
2021/05/30 11:09:04;;;;;;;11.43;6.60;;;;;;;23.16;99.27;101992.19;5022112;28;20054;-57
2021/05/30 11:11:31;;;;;;;11.15;6.78;;;;;;;22.83;100.00;101994.00;4921566;29;20052;-58
2021/05/30 11:14:01;;;;;;;11.90;7.82;;;;;;;22.76;100.00;101993.19;4924197;29;20055;-58